sensor_id;sensor_type;location;lat;lon;timestamp;temperature;humidity
13591;DHT22;6866;50.778;7.206;2022-08-03T00:01:42;21.40;62.00
13591;DHT22;6866;50.778;7.206;2022-08-03T00:04:09;21.40;62.60
13591;DHT22;6866;50.778;7.206;2022-08-03T00:06:35;21.20;62.80
13591;DHT22;6866;50.778;7.206;2022-08-03T00:09:02;21.10;63.20
13591;DHT22;6866;50.778;7.206;2022-08-03T00:11:27;21.10;63.50
13591;DHT22;6866;50.778;7.206;2022-08-03T00:13:53;21.10;63.30
13591;DHT22;6866;50.778;7.206;2022-08-03T00:16:18;21.30;62.80
13591;DHT22;6866;50.778;7.206;2022-08-03T00:18:44;21.30;62.50
13591;DHT22;6866;50.778;7.206;2022-08-03T00:21:10;21.20;62.90
13591;DHT22;6866;50.778;7.206;2022-08-03T00:23:35;21.10;63.20
13591;DHT22;6866;50.778;7.206;2022-08-03T00:26:01;20.90;64.90
13591;DHT22;6866;50.778;7.206;2022-08-03T00:28:27;21.00;63.80
13591;DHT22;6866;50.778;7.206;2022-08-03T00:30:52;21.00;63.60
13591;DHT22;6866;50.778;7.206;2022-08-03T00:33:18;21.00;64.00
13591;DHT22;6866;50.778;7.206;2022-08-03T00:35:44;21.10;63.40
13591;DHT22;6866;50.778;7.206;2022-08-03T00:38:09;21.30;62.90
13591;DHT22;6866;50.778;7.206;2022-08-03T00:40:35;21.20;62.80
13591;DHT22;6866;50.778;7.206;2022-08-03T00:43:03;21.20;63.30
13591;DHT22;6866;50.778;7.206;2022-08-03T00:45:31;21.20;63.20
13591;DHT22;6866;50.778;7.206;2022-08-03T00:47:57;21.20;62.90
13591;DHT22;6866;50.778;7.206;2022-08-03T00:50:24;21.30;62.80
13591;DHT22;6866;50.778;7.206;2022-08-03T00:52:56;21.30;63.00
13591;DHT22;6866;50.778;7.206;2022-08-03T00:55:22;21.00;63.70
13591;DHT22;6866;50.778;7.206;2022-08-03T00:57:48;20.90;64.40
13591;DHT22;6866;50.778;7.206;2022-08-03T01:05:24;20.70;64.70
13591;DHT22;6866;50.778;7.206;2022-08-03T01:08:05;20.60;65.10
13591;DHT22;6866;50.778;7.206;2022-08-03T01:10:39;20.50;65.70
13591;DHT22;6866;50.778;7.206;2022-08-03T01:16:28;20.60;65.40
13591;DHT22;6866;50.778;7.206;2022-08-03T01:21:42;20.40;66.30
13591;DHT22;6866;50.778;7.206;2022-08-03T01:31:56;20.20;66.80
13591;DHT22;6866;50.778;7.206;2022-08-03T01:34:24;20.20;67.10
13591;DHT22;6866;50.778;7.206;2022-08-03T01:36:51;20.20;66.80
13591;DHT22;6866;50.778;7.206;2022-08-03T01:39:18;20.00;67.70
13591;DHT22;6866;50.778;7.206;2022-08-03T01:42:00;19.80;68.50
13591;DHT22;6866;50.778;7.206;2022-08-03T01:44:34;19.90;68.30
13591;DHT22;6866;50.778;7.206;2022-08-03T01:47:01;20.10;67.50
13591;DHT22;6866;50.778;7.206;2022-08-03T01:49:29;20.00;67.80
13591;DHT22;6866;50.778;7.206;2022-08-03T01:51:56;19.90;67.80
13591;DHT22;6866;50.778;7.206;2022-08-03T01:54:24;19.90;68.00
13591;DHT22;6866;50.778;7.206;2022-08-03T01:56:51;20.00;67.80
13591;DHT22;6866;50.778;7.206;2022-08-03T01:59:19;20.00;67.40
13591;DHT22;6866;50.778;7.206;2022-08-03T02:01:47;20.10;67.50
13591;DHT22;6866;50.778;7.206;2022-08-03T02:04:16;20.00;67.20
13591;DHT22;6866;50.778;7.206;2022-08-03T02:06:45;19.80;68.20
13591;DHT22;6866;50.778;7.206;2022-08-03T02:09:12;19.70;68.00
13591;DHT22;6866;50.778;7.206;2022-08-03T02:11:39;19.70;68.50
13591;DHT22;6866;50.778;7.206;2022-08-03T02:14:05;19.60;68.90
13591;DHT22;6866;50.778;7.206;2022-08-03T02:16:32;19.70;68.80
13591;DHT22;6866;50.778;7.206;2022-08-03T02:19:00;19.70;68.60
13591;DHT22;6866;50.778;7.206;2022-08-03T02:21:28;19.50;69.70
13591;DHT22;6866;50.778;7.206;2022-08-03T02:23:56;19.60;69.20
13591;DHT22;6866;50.778;7.206;2022-08-03T02:26:23;19.50;69.60
13591;DHT22;6866;50.778;7.206;2022-08-03T02:28:52;19.40;69.90
13591;DHT22;6866;50.778;7.206;2022-08-03T02:31:23;19.40;69.70
13591;DHT22;6866;50.778;7.206;2022-08-03T02:33:55;19.40;69.30
13591;DHT22;6866;50.778;7.206;2022-08-03T02:36:24;19.40;69.70
13591;DHT22;6866;50.778;7.206;2022-08-03T02:38:54;19.60;69.10
13591;DHT22;6866;50.778;7.206;2022-08-03T02:41:23;19.40;69.30
13591;DHT22;6866;50.778;7.206;2022-08-03T02:43:52;19.30;71.50
13591;DHT22;6866;50.778;7.206;2022-08-03T02:46:19;19.20;70.60
13591;DHT22;6866;50.778;7.206;2022-08-03T02:48:47;19.20;70.70
13591;DHT22;6866;50.778;7.206;2022-08-03T02:51:16;19.30;70.10
13591;DHT22;6866;50.778;7.206;2022-08-03T02:53:44;19.20;70.60
13591;DHT22;6866;50.778;7.206;2022-08-03T02:56:10;19.20;70.60
13591;DHT22;6866;50.778;7.206;2022-08-03T02:58:38;19.10;71.10
13591;DHT22;6866;50.778;7.206;2022-08-03T03:01:05;18.80;72.10
13591;DHT22;6866;50.778;7.206;2022-08-03T03:03:31;18.80;73.20
13591;DHT22;6866;50.778;7.206;2022-08-03T03:05:57;18.80;72.60
13591;DHT22;6866;50.778;7.206;2022-08-03T03:08:24;18.90;72.00
13591;DHT22;6866;50.778;7.206;2022-08-03T03:10:51;19.00;71.00
13591;DHT22;6866;50.778;7.206;2022-08-03T03:13:18;19.00;71.20
13591;DHT22;6866;50.778;7.206;2022-08-03T03:15:46;19.00;71.30
13591;DHT22;6866;50.778;7.206;2022-08-03T03:18:13;18.90;71.80
13591;DHT22;6866;50.778;7.206;2022-08-03T03:20:39;18.90;71.90
13591;DHT22;6866;50.778;7.206;2022-08-03T03:23:06;18.80;72.40
13591;DHT22;6866;50.778;7.206;2022-08-03T03:25:33;18.80;72.80
13591;DHT22;6866;50.778;7.206;2022-08-03T03:27:59;18.80;72.80
13591;DHT22;6866;50.778;7.206;2022-08-03T03:30:26;18.80;72.90
13591;DHT22;6866;50.778;7.206;2022-08-03T03:32:52;18.70;73.10
13591;DHT22;6866;50.778;7.206;2022-08-03T03:35:18;18.70;73.10
13591;DHT22;6866;50.778;7.206;2022-08-03T03:37:44;18.90;72.50
13591;DHT22;6866;50.778;7.206;2022-08-03T03:40:10;19.00;71.80
13591;DHT22;6866;50.778;7.206;2022-08-03T03:42:36;19.10;71.80
13591;DHT22;6866;50.778;7.206;2022-08-03T03:45:06;19.00;71.60
13591;DHT22;6866;50.778;7.206;2022-08-03T03:47:35;18.90;72.10
13591;DHT22;6866;50.778;7.206;2022-08-03T03:50:05;18.70;72.90
13591;DHT22;6866;50.778;7.206;2022-08-03T03:52:31;18.60;73.10
13591;DHT22;6866;50.778;7.206;2022-08-03T03:54:57;18.70;73.10
13591;DHT22;6866;50.778;7.206;2022-08-03T03:57:22;18.80;72.40
13591;DHT22;6866;50.778;7.206;2022-08-03T03:59:48;18.80;72.50
13591;DHT22;6866;50.778;7.206;2022-08-03T04:02:14;18.80;71.40
13591;DHT22;6866;50.778;7.206;2022-08-03T04:04:40;18.90;71.40
13591;DHT22;6866;50.778;7.206;2022-08-03T04:07:25;18.90;71.70
13591;DHT22;6866;50.778;7.206;2022-08-03T04:10:15;18.90;71.40
13591;DHT22;6866;50.778;7.206;2022-08-03T04:13:03;19.00;70.60
13591;DHT22;6866;50.778;7.206;2022-08-03T04:15:32;18.90;71.00
13591;DHT22;6866;50.778;7.206;2022-08-03T04:18:00;18.90;71.20
13591;DHT22;6866;50.778;7.206;2022-08-03T04:20:29;18.80;71.60
13591;DHT22;6866;50.778;7.206;2022-08-03T04:22:57;18.70;71.70
13591;DHT22;6866;50.778;7.206;2022-08-03T04:25:27;18.70;72.20
13591;DHT22;6866;50.778;7.206;2022-08-03T04:27:55;18.60;72.90
13591;DHT22;6866;50.778;7.206;2022-08-03T04:30:25;18.60;72.50
13591;DHT22;6866;50.778;7.206;2022-08-03T04:32:52;18.60;72.60
13591;DHT22;6866;50.778;7.206;2022-08-03T04:35:18;18.60;72.80
13591;DHT22;6866;50.778;7.206;2022-08-03T04:37:49;18.60;72.90
13591;DHT22;6866;50.778;7.206;2022-08-03T04:40:30;18.70;72.30
13591;DHT22;6866;50.778;7.206;2022-08-03T04:42:57;18.60;72.50
13591;DHT22;6866;50.778;7.206;2022-08-03T04:45:24;18.60;72.30
13591;DHT22;6866;50.778;7.206;2022-08-03T04:47:50;18.70;72.30
13591;DHT22;6866;50.778;7.206;2022-08-03T04:50:16;18.80;71.90
13591;DHT22;6866;50.778;7.206;2022-08-03T04:52:43;18.90;70.90
13591;DHT22;6866;50.778;7.206;2022-08-03T04:55:09;19.00;70.90
13591;DHT22;6866;50.778;7.206;2022-08-03T04:57:34;19.00;71.10
13591;DHT22;6866;50.778;7.206;2022-08-03T05:00:00;18.90;71.60
13591;DHT22;6866;50.778;7.206;2022-08-03T05:02:25;18.90;71.40
13591;DHT22;6866;50.778;7.206;2022-08-03T05:04:51;19.00;71.40
13591;DHT22;6866;50.778;7.206;2022-08-03T05:07:17;19.10;70.70
13591;DHT22;6866;50.778;7.206;2022-08-03T05:09:43;19.30;70.10
13591;DHT22;6866;50.778;7.206;2022-08-03T05:12:09;19.30;70.00
13591;DHT22;6866;50.778;7.206;2022-08-03T05:14:35;19.20;70.30
13591;DHT22;6866;50.778;7.206;2022-08-03T05:17:03;19.40;70.20
13591;DHT22;6866;50.778;7.206;2022-08-03T05:19:29;19.50;69.40
13591;DHT22;6866;50.778;7.206;2022-08-03T05:21:55;19.60;69.10
13591;DHT22;6866;50.778;7.206;2022-08-03T05:24:20;19.70;68.60
13591;DHT22;6866;50.778;7.206;2022-08-03T05:26:45;19.90;67.90
13591;DHT22;6866;50.778;7.206;2022-08-03T05:29:11;19.90;68.00
13591;DHT22;6866;50.778;7.206;2022-08-03T05:31:37;19.80;68.00
13591;DHT22;6866;50.778;7.206;2022-08-03T05:34:02;19.90;68.10
13591;DHT22;6866;50.778;7.206;2022-08-03T05:36:28;19.90;67.80
13591;DHT22;6866;50.778;7.206;2022-08-03T05:38:53;20.10;67.50
13591;DHT22;6866;50.778;7.206;2022-08-03T05:41:19;20.20;66.60
13591;DHT22;6866;50.778;7.206;2022-08-03T05:43:45;20.50;66.40
13591;DHT22;6866;50.778;7.206;2022-08-03T05:46:10;20.50;65.80
13591;DHT22;6866;50.778;7.206;2022-08-03T05:48:36;21.40;63.30
13591;DHT22;6866;50.778;7.206;2022-08-03T05:51:02;23.50;58.70
13591;DHT22;6866;50.778;7.206;2022-08-03T05:53:32;26.60;49.90
13591;DHT22;6866;50.778;7.206;2022-08-03T05:55:58;28.30;45.20
13591;DHT22;6866;50.778;7.206;2022-08-03T05:58:23;29.90;41.30
13591;DHT22;6866;50.778;7.206;2022-08-03T06:00:49;29.80;40.60
13591;DHT22;6866;50.778;7.206;2022-08-03T06:03:14;30.60;39.20
13591;DHT22;6866;50.778;7.206;2022-08-03T06:05:40;30.90;37.50
13591;DHT22;6866;50.778;7.206;2022-08-03T06:08:05;31.00;37.00
13591;DHT22;6866;50.778;7.206;2022-08-03T06:10:31;31.60;37.00
13591;DHT22;6866;50.778;7.206;2022-08-03T06:12:57;32.00;35.70
13591;DHT22;6866;50.778;7.206;2022-08-03T06:15:23;32.30;36.20
13591;DHT22;6866;50.778;7.206;2022-08-03T06:17:49;32.50;35.00
13591;DHT22;6866;50.778;7.206;2022-08-03T06:20:17;33.30;33.40
13591;DHT22;6866;50.778;7.206;2022-08-03T06:22:44;32.90;33.10
13591;DHT22;6866;50.778;7.206;2022-08-03T06:25:10;32.30;35.40
13591;DHT22;6866;50.778;7.206;2022-08-03T06:27:35;33.10;34.10
13591;DHT22;6866;50.778;7.206;2022-08-03T06:30:05;33.10;33.60
13591;DHT22;6866;50.778;7.206;2022-08-03T06:32:31;33.80;32.50
13591;DHT22;6866;50.778;7.206;2022-08-03T06:34:58;34.20;31.20
13591;DHT22;6866;50.778;7.206;2022-08-03T06:37:24;33.70;31.90
13591;DHT22;6866;50.778;7.206;2022-08-03T06:39:51;34.60;31.40
13591;DHT22;6866;50.778;7.206;2022-08-03T06:42:17;35.50;29.90
13591;DHT22;6866;50.778;7.206;2022-08-03T06:44:42;34.90;30.10
13591;DHT22;6866;50.778;7.206;2022-08-03T06:47:08;35.20;29.90
13591;DHT22;6866;50.778;7.206;2022-08-03T06:49:34;35.70;29.60
13591;DHT22;6866;50.778;7.206;2022-08-03T06:51:59;36.10;29.00
13591;DHT22;6866;50.778;7.206;2022-08-03T06:54:25;35.50;29.90
13591;DHT22;6866;50.778;7.206;2022-08-03T06:56:50;35.30;28.90
13591;DHT22;6866;50.778;7.206;2022-08-03T06:59:16;35.50;29.70
13591;DHT22;6866;50.778;7.206;2022-08-03T07:01:41;35.80;29.00
13591;DHT22;6866;50.778;7.206;2022-08-03T07:04:07;35.50;28.90
13591;DHT22;6866;50.778;7.206;2022-08-03T07:06:32;36.20;28.80
13591;DHT22;6866;50.778;7.206;2022-08-03T07:08:58;36.00;28.50
13591;DHT22;6866;50.778;7.206;2022-08-03T07:11:24;35.60;28.80
13591;DHT22;6866;50.778;7.206;2022-08-03T07:13:50;35.10;29.70
13591;DHT22;6866;50.778;7.206;2022-08-03T07:16:15;36.00;28.50
13591;DHT22;6866;50.778;7.206;2022-08-03T07:18:41;36.20;28.10
13591;DHT22;6866;50.778;7.206;2022-08-03T07:21:06;36.10;28.70
13591;DHT22;6866;50.778;7.206;2022-08-03T07:23:33;36.40;28.30
13591;DHT22;6866;50.778;7.206;2022-08-03T07:25:59;36.60;27.70
13591;DHT22;6866;50.778;7.206;2022-08-03T07:28:24;36.50;28.10
13591;DHT22;6866;50.778;7.206;2022-08-03T07:30:50;37.40;27.20
13591;DHT22;6866;50.778;7.206;2022-08-03T07:33:15;36.60;27.40
13591;DHT22;6866;50.778;7.206;2022-08-03T07:35:41;35.90;27.70
13591;DHT22;6866;50.778;7.206;2022-08-03T07:38:06;36.20;28.40
13591;DHT22;6866;50.778;7.206;2022-08-03T07:40:33;36.50;27.60
13591;DHT22;6866;50.778;7.206;2022-08-03T07:42:59;36.00;27.60
13591;DHT22;6866;50.778;7.206;2022-08-03T07:45:24;36.70;27.60
13591;DHT22;6866;50.778;7.206;2022-08-03T07:47:51;37.00;27.10
13591;DHT22;6866;50.778;7.206;2022-08-03T07:50:16;36.00;28.40
13591;DHT22;6866;50.778;7.206;2022-08-03T07:52:42;36.30;27.60
13591;DHT22;6866;50.778;7.206;2022-08-03T07:55:22;36.30;28.30
13591;DHT22;6866;50.778;7.206;2022-08-03T07:58:07;37.40;27.00
13591;DHT22;6866;50.778;7.206;2022-08-03T08:00:42;37.40;26.80
13591;DHT22;6866;50.778;7.206;2022-08-03T08:03:09;37.10;26.70
13591;DHT22;6866;50.778;7.206;2022-08-03T08:05:35;36.80;26.50
13591;DHT22;6866;50.778;7.206;2022-08-03T08:08:01;37.10;27.60
13591;DHT22;6866;50.778;7.206;2022-08-03T08:10:27;37.60;29.60
13591;DHT22;6866;50.778;7.206;2022-08-03T08:12:53;37.50;26.60
13591;DHT22;6866;50.778;7.206;2022-08-03T08:17:50;37.70;33.40
13591;DHT22;6866;50.778;7.206;2022-08-03T08:20:23;37.30;26.10
13591;DHT22;6866;50.778;7.206;2022-08-03T08:22:49;37.30;26.80
13591;DHT22;6866;50.778;7.206;2022-08-03T08:25:15;37.50;26.60
13591;DHT22;6866;50.778;7.206;2022-08-03T08:27:42;37.60;26.00
13591;DHT22;6866;50.778;7.206;2022-08-03T08:30:09;37.10;26.40
13591;DHT22;6866;50.778;7.206;2022-08-03T08:32:34;37.50;26.50
13591;DHT22;6866;50.778;7.206;2022-08-03T08:35:02;35.80;27.40
13591;DHT22;6866;50.778;7.206;2022-08-03T08:37:28;35.90;28.30
13591;DHT22;6866;50.778;7.206;2022-08-03T08:39:55;36.70;27.20
13591;DHT22;6866;50.778;7.206;2022-08-03T08:42:23;36.70;25.80
13591;DHT22;6866;50.778;7.206;2022-08-03T08:44:48;36.60;26.30
13591;DHT22;6866;50.778;7.206;2022-08-03T08:47:14;36.60;27.30
13591;DHT22;6866;50.778;7.206;2022-08-03T08:49:40;37.20;25.90
13591;DHT22;6866;50.778;7.206;2022-08-03T08:52:10;37.00;26.70
13591;DHT22;6866;50.778;7.206;2022-08-03T08:54:40;37.20;26.30
13591;DHT22;6866;50.778;7.206;2022-08-03T08:57:06;37.30;26.40
13591;DHT22;6866;50.778;7.206;2022-08-03T08:59:32;37.50;25.70
13591;DHT22;6866;50.778;7.206;2022-08-03T09:02:01;38.20;25.20
13591;DHT22;6866;50.778;7.206;2022-08-03T09:04:30;38.40;24.80
13591;DHT22;6866;50.778;7.206;2022-08-03T09:09:22;38.20;33.00
13591;DHT22;6866;50.778;7.206;2022-08-03T09:11:48;37.80;33.20
13591;DHT22;6866;50.778;7.206;2022-08-03T09:16:57;37.20;60.20
13591;DHT22;6866;50.778;7.206;2022-08-03T09:19:24;37.50;32.20
13591;DHT22;6866;50.778;7.206;2022-08-03T09:22:13;37.20;36.90
13591;DHT22;6866;50.778;7.206;2022-08-03T09:24:55;37.50;55.90
13591;DHT22;6866;50.778;7.206;2022-08-03T09:27:21;36.60;62.70
13591;DHT22;6866;50.778;7.206;2022-08-03T09:29:51;37.10;51.40
13591;DHT22;6866;50.778;7.206;2022-08-03T09:32:20;36.80;60.00
13591;DHT22;6866;50.778;7.206;2022-08-03T09:34:51;35.90;67.80
13591;DHT22;6866;50.778;7.206;2022-08-03T09:37:19;35.50;67.20
13591;DHT22;6866;50.778;7.206;2022-08-03T09:39:45;35.80;64.00
13591;DHT22;6866;50.778;7.206;2022-08-03T09:42:12;36.50;65.80
13591;DHT22;6866;50.778;7.206;2022-08-03T09:44:46;36.60;40.90
13591;DHT22;6866;50.778;7.206;2022-08-03T09:47:32;36.40;26.50
13591;DHT22;6866;50.778;7.206;2022-08-03T09:50:03;36.40;25.90
13591;DHT22;6866;50.778;7.206;2022-08-03T09:55:13;35.20;47.90
13591;DHT22;6866;50.778;7.206;2022-08-03T09:57:39;35.60;26.70
13591;DHT22;6866;50.778;7.206;2022-08-03T10:00:12;35.70;52.90
13591;DHT22;6866;50.778;7.206;2022-08-03T10:02:40;35.90;27.20
13591;DHT22;6866;50.778;7.206;2022-08-03T10:05:06;35.60;27.20
13591;DHT22;6866;50.778;7.206;2022-08-03T10:07:47;35.80;26.90
13591;DHT22;6866;50.778;7.206;2022-08-03T10:10:14;35.70;26.60
13591;DHT22;6866;50.778;7.206;2022-08-03T10:12:41;35.70;26.90
13591;DHT22;6866;50.778;7.206;2022-08-03T10:15:08;35.90;26.90
13591;DHT22;6866;50.778;7.206;2022-08-03T10:17:34;35.90;27.00
13591;DHT22;6866;50.778;7.206;2022-08-03T10:20:00;36.10;26.30
13591;DHT22;6866;50.778;7.206;2022-08-03T10:22:30;35.60;26.90
13591;DHT22;6866;50.778;7.206;2022-08-03T10:25:06;35.10;26.90
13591;DHT22;6866;50.778;7.206;2022-08-03T10:27:40;35.00;27.40
13591;DHT22;6866;50.778;7.206;2022-08-03T10:30:09;35.10;27.00
13591;DHT22;6866;50.778;7.206;2022-08-03T10:32:43;34.90;28.00
13591;DHT22;6866;50.778;7.206;2022-08-03T10:35:13;35.10;27.40
13591;DHT22;6866;50.778;7.206;2022-08-03T10:37:43;35.10;27.90
13591;DHT22;6866;50.778;7.206;2022-08-03T10:40:12;35.40;27.70
13591;DHT22;6866;50.778;7.206;2022-08-03T10:42:39;35.40;26.90
13591;DHT22;6866;50.778;7.206;2022-08-03T10:45:17;35.40;27.20
13591;DHT22;6866;50.778;7.206;2022-08-03T10:47:44;34.80;27.00
13591;DHT22;6866;50.778;7.206;2022-08-03T10:50:10;35.10;27.50
13591;DHT22;6866;50.778;7.206;2022-08-03T10:52:59;35.20;28.40
13591;DHT22;6866;50.778;7.206;2022-08-03T10:58:13;35.10;27.10
13591;DHT22;6866;50.778;7.206;2022-08-03T11:00:49;34.80;27.70
13591;DHT22;6866;50.778;7.206;2022-08-03T11:03:15;34.90;28.30
13591;DHT22;6866;50.778;7.206;2022-08-03T11:05:46;35.10;27.90
13591;DHT22;6866;50.778;7.206;2022-08-03T11:08:25;35.20;27.60
13591;DHT22;6866;50.778;7.206;2022-08-03T11:10:54;35.50;27.80
13591;DHT22;6866;50.778;7.206;2022-08-03T11:13:23;35.60;26.80
13591;DHT22;6866;50.778;7.206;2022-08-03T11:15:52;35.60;26.70
13591;DHT22;6866;50.778;7.206;2022-08-03T11:18:18;35.50;27.00
13591;DHT22;6866;50.778;7.206;2022-08-03T11:20:55;34.90;27.20
13591;DHT22;6866;50.778;7.206;2022-08-03T11:23:44;34.60;27.10
13591;DHT22;6866;50.778;7.206;2022-08-03T11:26:17;34.70;27.50
13591;DHT22;6866;50.778;7.206;2022-08-03T11:28:46;34.60;27.70
13591;DHT22;6866;50.778;7.206;2022-08-03T11:34:09;34.80;27.30
13591;DHT22;6866;50.778;7.206;2022-08-03T11:39:43;34.40;28.00
13591;DHT22;6866;50.778;7.206;2022-08-03T11:44:51;35.00;27.40
13591;DHT22;6866;50.778;7.206;2022-08-03T11:47:19;35.30;27.50
13591;DHT22;6866;50.778;7.206;2022-08-03T11:49:49;35.40;27.50
13591;DHT22;6866;50.778;7.206;2022-08-03T11:54:42;35.10;26.30
13591;DHT22;6866;50.778;7.206;2022-08-03T11:57:08;35.60;27.50
13591;DHT22;6866;50.778;7.206;2022-08-03T11:59:34;35.70;27.00
13591;DHT22;6866;50.778;7.206;2022-08-03T12:02:11;35.30;26.60
13591;DHT22;6866;50.778;7.206;2022-08-03T12:04:57;35.10;26.90
13591;DHT22;6866;50.778;7.206;2022-08-03T12:07:24;34.50;27.40
13591;DHT22;6866;50.778;7.206;2022-08-03T12:10:08;34.70;27.10
13591;DHT22;6866;50.778;7.206;2022-08-03T12:12:35;34.90;27.20
13591;DHT22;6866;50.778;7.206;2022-08-03T12:15:01;34.80;26.80
13591;DHT22;6866;50.778;7.206;2022-08-03T12:17:37;35.00;26.90
13591;DHT22;6866;50.778;7.206;2022-08-03T12:20:04;35.10;26.80
13591;DHT22;6866;50.778;7.206;2022-08-03T12:22:39;35.30;26.90
13591;DHT22;6866;50.778;7.206;2022-08-03T12:25:06;35.40;26.90
13591;DHT22;6866;50.778;7.206;2022-08-03T12:27:33;35.50;27.00
13591;DHT22;6866;50.778;7.206;2022-08-03T12:29:59;35.40;26.40
13591;DHT22;6866;50.778;7.206;2022-08-03T12:32:27;35.10;27.00
13591;DHT22;6866;50.778;7.206;2022-08-03T12:34:54;34.90;26.90
13591;DHT22;6866;50.778;7.206;2022-08-03T12:37:23;35.00;27.10
13591;DHT22;6866;50.778;7.206;2022-08-03T12:39:55;34.70;26.80
13591;DHT22;6866;50.778;7.206;2022-08-03T12:42:20;34.50;27.20
13591;DHT22;6866;50.778;7.206;2022-08-03T12:44:47;34.90;27.40
13591;DHT22;6866;50.778;7.206;2022-08-03T12:47:15;34.80;27.10
13591;DHT22;6866;50.778;7.206;2022-08-03T12:49:48;34.50;27.30
13591;DHT22;6866;50.778;7.206;2022-08-03T12:52:16;34.20;27.90
13591;DHT22;6866;50.778;7.206;2022-08-03T12:54:42;34.30;27.90
13591;DHT22;6866;50.778;7.206;2022-08-03T12:57:18;34.40;27.80
13591;DHT22;6866;50.778;7.206;2022-08-03T12:59:44;34.50;27.90
13591;DHT22;6866;50.778;7.206;2022-08-03T13:02:18;34.80;27.50
13591;DHT22;6866;50.778;7.206;2022-08-03T13:04:45;34.90;26.80
13591;DHT22;6866;50.778;7.206;2022-08-03T13:07:11;35.10;26.90
13591;DHT22;6866;50.778;7.206;2022-08-03T13:12:15;35.40;26.40
13591;DHT22;6866;50.778;7.206;2022-08-03T13:14:43;35.80;26.00
13591;DHT22;6866;50.778;7.206;2022-08-03T13:17:09;35.80;25.80
13591;DHT22;6866;50.778;7.206;2022-08-03T13:19:36;35.70;25.90
13591;DHT22;6866;50.778;7.206;2022-08-03T13:22:15;35.60;25.70
13591;DHT22;6866;50.778;7.206;2022-08-03T13:24:41;35.60;25.90
13591;DHT22;6866;50.778;7.206;2022-08-03T13:27:07;35.40;26.00
13591;DHT22;6866;50.778;7.206;2022-08-03T13:29:34;35.50;25.70
13591;DHT22;6866;50.778;7.206;2022-08-03T13:32:00;35.50;25.90
13591;DHT22;6866;50.778;7.206;2022-08-03T13:34:26;35.80;25.90
13591;DHT22;6866;50.778;7.206;2022-08-03T13:36:52;35.70;25.70
13591;DHT22;6866;50.778;7.206;2022-08-03T13:39:18;35.80;25.70
13591;DHT22;6866;50.778;7.206;2022-08-03T13:41:44;35.80;25.60
13591;DHT22;6866;50.778;7.206;2022-08-03T13:44:10;35.90;25.80
13591;DHT22;6866;50.778;7.206;2022-08-03T13:46:35;35.90;25.70
13591;DHT22;6866;50.778;7.206;2022-08-03T13:49:01;35.90;25.40
13591;DHT22;6866;50.778;7.206;2022-08-03T13:51:26;36.00;25.30
13591;DHT22;6866;50.778;7.206;2022-08-03T13:53:52;36.00;25.50
13591;DHT22;6866;50.778;7.206;2022-08-03T13:56:17;36.20;25.50
13591;DHT22;6866;50.778;7.206;2022-08-03T13:58:43;36.10;25.50
13591;DHT22;6866;50.778;7.206;2022-08-03T14:01:09;36.20;25.00
13591;DHT22;6866;50.778;7.206;2022-08-03T14:03:34;36.30;25.40
13591;DHT22;6866;50.778;7.206;2022-08-03T14:06:00;36.10;25.10
13591;DHT22;6866;50.778;7.206;2022-08-03T14:08:25;36.20;25.50
13591;DHT22;6866;50.778;7.206;2022-08-03T14:10:51;36.10;25.30
13591;DHT22;6866;50.778;7.206;2022-08-03T14:13:16;35.80;25.20
13591;DHT22;6866;50.778;7.206;2022-08-03T14:15:42;35.40;26.00
13591;DHT22;6866;50.778;7.206;2022-08-03T14:18:08;35.00;26.00
13591;DHT22;6866;50.778;7.206;2022-08-03T14:20:35;34.90;26.10
13591;DHT22;6866;50.778;7.206;2022-08-03T14:23:01;35.30;26.00
13591;DHT22;6866;50.778;7.206;2022-08-03T14:25:26;35.50;25.80
13591;DHT22;6866;50.778;7.206;2022-08-03T14:27:52;35.50;26.20
13591;DHT22;6866;50.778;7.206;2022-08-03T14:30:17;35.40;25.80
13591;DHT22;6866;50.778;7.206;2022-08-03T14:32:43;35.50;25.70
13591;DHT22;6866;50.778;7.206;2022-08-03T14:35:09;35.50;25.70
13591;DHT22;6866;50.778;7.206;2022-08-03T14:37:34;35.30;25.60
13591;DHT22;6866;50.778;7.206;2022-08-03T14:40:00;35.10;26.00
13591;DHT22;6866;50.778;7.206;2022-08-03T14:42:26;35.20;26.10
13591;DHT22;6866;50.778;7.206;2022-08-03T14:44:51;35.00;26.20
13591;DHT22;6866;50.778;7.206;2022-08-03T14:47:17;35.00;26.20
13591;DHT22;6866;50.778;7.206;2022-08-03T14:49:42;35.10;26.20
13591;DHT22;6866;50.778;7.206;2022-08-03T14:52:08;35.10;26.10
13591;DHT22;6866;50.778;7.206;2022-08-03T14:54:34;35.10;26.00
13591;DHT22;6866;50.778;7.206;2022-08-03T14:57:00;35.10;25.80
13591;DHT22;6866;50.778;7.206;2022-08-03T14:59:26;35.10;25.60
13591;DHT22;6866;50.778;7.206;2022-08-03T15:01:52;35.20;26.10
13591;DHT22;6866;50.778;7.206;2022-08-03T15:04:17;34.90;25.90
13591;DHT22;6866;50.778;7.206;2022-08-03T15:06:43;35.10;26.40
13591;DHT22;6866;50.778;7.206;2022-08-03T15:09:08;34.80;25.90
13591;DHT22;6866;50.778;7.206;2022-08-03T15:11:34;34.90;26.10
13591;DHT22;6866;50.778;7.206;2022-08-03T15:14:00;34.70;26.10
13591;DHT22;6866;50.778;7.206;2022-08-03T15:16:26;34.70;26.10
13591;DHT22;6866;50.778;7.206;2022-08-03T15:18:51;34.40;26.30
13591;DHT22;6866;50.778;7.206;2022-08-03T15:21:17;34.70;26.40
13591;DHT22;6866;50.778;7.206;2022-08-03T15:23:42;34.80;26.50
13591;DHT22;6866;50.778;7.206;2022-08-03T15:26:08;34.70;26.20
13591;DHT22;6866;50.778;7.206;2022-08-03T15:28:33;34.60;26.30
13591;DHT22;6866;50.778;7.206;2022-08-03T15:30:59;34.60;26.40
13591;DHT22;6866;50.778;7.206;2022-08-03T15:33:25;34.60;26.30
13591;DHT22;6866;50.778;7.206;2022-08-03T15:35:50;34.60;26.30
13591;DHT22;6866;50.778;7.206;2022-08-03T15:38:17;34.50;27.00
13591;DHT22;6866;50.778;7.206;2022-08-03T15:40:43;34.60;26.70
13591;DHT22;6866;50.778;7.206;2022-08-03T15:43:09;34.60;26.40
13591;DHT22;6866;50.778;7.206;2022-08-03T15:45:35;34.50;26.40
13591;DHT22;6866;50.778;7.206;2022-08-03T15:48:00;34.50;26.30
13591;DHT22;6866;50.778;7.206;2022-08-03T15:50:26;34.40;26.90
13591;DHT22;6866;50.778;7.206;2022-08-03T15:52:51;34.50;26.60
13591;DHT22;6866;50.778;7.206;2022-08-03T15:55:17;34.30;26.80
13591;DHT22;6866;50.778;7.206;2022-08-03T15:57:43;34.20;26.80
13591;DHT22;6866;50.778;7.206;2022-08-03T16:00:08;34.20;26.80
13591;DHT22;6866;50.778;7.206;2022-08-03T16:02:35;34.40;26.90
13591;DHT22;6866;50.778;7.206;2022-08-03T16:05:01;34.30;26.60
13591;DHT22;6866;50.778;7.206;2022-08-03T16:07:26;34.30;26.60
13591;DHT22;6866;50.778;7.206;2022-08-03T16:10:12;34.30;26.80
13591;DHT22;6866;50.778;7.206;2022-08-03T16:12:37;34.30;27.20
13591;DHT22;6866;50.778;7.206;2022-08-03T16:15:04;34.30;27.40
13591;DHT22;6866;50.778;7.206;2022-08-03T16:17:30;34.40;27.40
13591;DHT22;6866;50.778;7.206;2022-08-03T16:19:56;34.30;27.50
13591;DHT22;6866;50.778;7.206;2022-08-03T16:22:23;34.30;27.50
13591;DHT22;6866;50.778;7.206;2022-08-03T16:24:49;34.30;27.50
13591;DHT22;6866;50.778;7.206;2022-08-03T16:27:15;34.40;27.50
13591;DHT22;6866;50.778;7.206;2022-08-03T16:29:40;34.30;27.40
13591;DHT22;6866;50.778;7.206;2022-08-03T16:32:06;34.20;27.00
13591;DHT22;6866;50.778;7.206;2022-08-03T16:34:33;34.10;27.20